createdAt,value
2022-12-27T00:01:40.926Z,80.00
2022-12-27T00:04:08.817Z,79.90
2022-12-27T00:06:38.028Z,79.60
2022-12-27T00:09:06.995Z,79.40
2022-12-27T00:11:34.979Z,79.40
2022-12-27T00:14:04.713Z,79.50
2022-12-27T00:16:33.007Z,79.90
2022-12-27T00:19:01.396Z,80.10
2022-12-27T00:21:29.280Z,79.90
2022-12-27T00:23:59.069Z,80.40
2022-12-27T00:26:29.114Z,80.50
2022-12-27T00:28:57.100Z,80.90
2022-12-27T00:31:26.653Z,80.80
2022-12-27T00:33:56.056Z,81.00
2022-12-27T00:36:25.256Z,81.10
2022-12-27T00:38:54.441Z,81.40
2022-12-27T00:41:23.790Z,81.80
2022-12-27T00:43:51.792Z,81.70
2022-12-27T00:46:19.789Z,81.70
2022-12-27T00:48:48.129Z,82.50
2022-12-27T00:51:18.532Z,82.00
2022-12-27T00:53:46.851Z,82.60
2022-12-27T00:56:18.526Z,82.40
2022-12-27T00:58:47.853Z,82.60
2022-12-27T01:01:18.431Z,82.90
2022-12-27T01:03:47.161Z,83.40
2022-12-27T01:06:16.949Z,82.90
2022-12-27T01:08:45.849Z,82.10
2022-12-27T01:11:14.740Z,82.50
2022-12-27T01:13:43.067Z,84.00
2022-12-27T01:16:15.111Z,84.70
2022-12-27T01:18:43.126Z,85.30
2022-12-27T01:21:12.951Z,86.60
2022-12-27T01:23:41.067Z,87.70
2022-12-27T01:26:11.507Z,87.70
2022-12-27T01:28:39.363Z,88.20
2022-12-27T01:31:08.361Z,89.40
2022-12-27T01:33:37.739Z,90.00
2022-12-27T01:36:12.904Z,90.30
2022-12-27T01:38:42.741Z,90.50
2022-12-27T01:41:32.724Z,90.70
2022-12-27T01:44:00.589Z,90.00
2022-12-27T01:46:30.006Z,90.80
2022-12-27T01:48:59.582Z,90.90
2022-12-27T01:51:27.531Z,90.60
2022-12-27T01:53:55.488Z,90.00
2022-12-27T01:56:28.584Z,90.20
2022-12-27T01:59:00.132Z,90.70
2022-12-27T02:01:31.405Z,91.10
2022-12-27T02:04:06.040Z,91.40
2022-12-27T02:06:35.354Z,91.80
2022-12-27T02:09:21.898Z,91.80
2022-12-27T02:11:56.306Z,91.80
2022-12-27T02:14:28.330Z,91.80
2022-12-27T02:16:57.768Z,91.80
2022-12-27T02:19:39.905Z,91.70
2022-12-27T02:22:57.300Z,92.00
2022-12-27T02:25:41.267Z,91.80
2022-12-27T02:28:22.171Z,92.20
2022-12-27T02:30:56.482Z,92.40
2022-12-27T02:33:29.229Z,92.30
2022-12-27T02:36:01.329Z,92.30
2022-12-27T02:38:32.947Z,91.90
2022-12-27T02:41:20.885Z,92.40
2022-12-27T02:44:05.608Z,92.30
2022-12-27T02:46:52.236Z,92.30
2022-12-27T02:49:45.934Z,92.10
2022-12-27T02:52:41.786Z,92.20
2022-12-27T02:55:23.352Z,92.00
2022-12-27T02:57:59.856Z,91.60
2022-12-27T03:01:00.652Z,91.70
2022-12-27T03:03:44.877Z,91.90
2022-12-27T03:06:43.113Z,91.80
2022-12-27T03:09:37.903Z,92.10
2022-12-27T03:12:26.525Z,92.20
2022-12-27T03:15:18.152Z,91.90
2022-12-27T03:17:52.827Z,92.10
2022-12-27T03:20:40.531Z,92.50
2022-12-27T03:23:28.013Z,92.40
2022-12-27T03:25:59.029Z,92.60
2022-12-27T03:28:53.264Z,92.90
2022-12-27T03:31:43.876Z,93.00
2022-12-27T03:34:38.233Z,93.30
2022-12-27T03:37:29.185Z,93.30
2022-12-27T03:40:06.398Z,93.10
2022-12-27T03:42:57.171Z,93.10
2022-12-27T03:45:45.176Z,93.00
2022-12-27T03:48:15.504Z,93.10
2022-12-27T03:50:49.674Z,93.10
2022-12-27T03:53:24.323Z,93.00
2022-12-27T03:55:52.375Z,92.90
2022-12-27T03:58:20.546Z,92.90
2022-12-27T04:00:48.720Z,92.80
2022-12-27T04:03:16.730Z,92.90
2022-12-27T04:05:44.607Z,92.90
2022-12-27T04:08:29.921Z,93.00
2022-12-27T04:11:16.538Z,93.50
2022-12-27T04:14:02.039Z,93.30
2022-12-27T04:16:47.513Z,93.40
2022-12-27T04:19:32.808Z,93.30
2022-12-27T04:22:18.414Z,93.10
2022-12-27T04:25:03.790Z,93.20
2022-12-27T04:27:50.557Z,93.00
2022-12-27T04:30:36.108Z,93.40
2022-12-27T04:33:21.548Z,93.40
2022-12-27T04:35:49.344Z,93.40
2022-12-27T04:38:17.165Z,93.70
2022-12-27T04:41:02.636Z,93.70
2022-12-27T04:43:49.585Z,93.60
2022-12-27T04:46:41.068Z,93.60
2022-12-27T04:49:30.215Z,93.80
2022-12-27T04:52:15.733Z,93.90
2022-12-27T04:54:58.612Z,93.40
2022-12-27T04:57:27.787Z,92.50
2022-12-27T05:00:13.908Z,92.40
2022-12-27T05:02:42.608Z,92.20
2022-12-27T05:05:11.854Z,92.40
2022-12-27T05:07:57.479Z,92.50
2022-12-27T05:10:43.044Z,92.60
2022-12-27T05:13:29.388Z,92.40
2022-12-27T05:15:58.570Z,92.70
2022-12-27T05:18:26.420Z,92.40
2022-12-27T05:20:54.292Z,92.60
2022-12-27T05:23:39.586Z,92.80
2022-12-27T05:26:07.401Z,92.70
2022-12-27T05:28:35.219Z,92.90
2022-12-27T05:31:04.646Z,93.10
2022-12-27T05:33:33.178Z,93.70
2022-12-27T05:36:01.478Z,93.80
2022-12-27T05:38:29.288Z,93.80
2022-12-27T05:41:01.027Z,93.80
2022-12-27T05:43:29.927Z,93.90
2022-12-27T05:46:03.472Z,93.90
2022-12-27T05:48:32.732Z,94.30
2022-12-27T05:51:04.734Z,94.00
2022-12-27T05:53:32.621Z,94.00
2022-12-27T05:56:01.196Z,94.00
2022-12-27T05:58:29.501Z,94.10
2022-12-27T06:00:57.510Z,94.10
2022-12-27T06:03:25.627Z,94.10
2022-12-27T06:06:00.947Z,94.10
2022-12-27T06:08:28.863Z,93.40
2022-12-27T06:11:04.348Z,93.50
2022-12-27T06:13:32.493Z,93.00
2022-12-27T06:16:01.954Z,93.30
2022-12-27T06:18:32.858Z,93.80
2022-12-27T06:21:07.185Z,93.70
2022-12-27T06:23:35.443Z,93.80
2022-12-27T06:26:06.086Z,93.80
2022-12-27T06:28:34.326Z,93.90
2022-12-27T06:31:02.581Z,93.70
2022-12-27T06:33:30.709Z,93.80
2022-12-27T06:35:58.603Z,93.70
2022-12-27T06:38:27.784Z,93.70
2022-12-27T06:41:02.289Z,93.60
2022-12-27T06:43:30.202Z,93.70
2022-12-27T06:45:59.005Z,93.70
2022-12-27T06:48:27.011Z,93.70
2022-12-27T06:50:55.096Z,93.70
2022-12-27T06:53:23.126Z,93.40
2022-12-27T06:55:52.311Z,93.50
2022-12-27T06:58:20.120Z,93.50
2022-12-27T07:00:48.002Z,93.80
2022-12-27T07:03:15.971Z,94.10
2022-12-27T07:05:43.871Z,94.20
2022-12-27T07:08:11.755Z,94.20
2022-12-27T07:10:39.759Z,94.30
2022-12-27T07:13:08.927Z,94.30
2022-12-27T07:15:36.795Z,94.30
2022-12-27T07:18:04.717Z,94.20
2022-12-27T07:20:32.549Z,94.40
2022-12-27T07:23:00.429Z,94.40
2022-12-27T07:25:28.261Z,94.40
2022-12-27T07:27:56.202Z,94.40
2022-12-27T07:30:25.400Z,94.40
2022-12-27T07:32:53.230Z,94.40
2022-12-27T07:35:21.077Z,94.30
2022-12-27T07:37:48.900Z,94.30
2022-12-27T07:40:16.871Z,94.10
2022-12-27T07:42:45.889Z,93.90
2022-12-27T07:45:13.741Z,93.90
2022-12-27T07:47:42.908Z,93.80
2022-12-27T07:50:11.179Z,93.90
2022-12-27T07:52:38.999Z,94.10
2022-12-27T07:55:07.609Z,93.90
2022-12-27T07:57:35.411Z,94.10
2022-12-27T08:00:03.737Z,94.30
2022-12-27T08:02:31.712Z,94.10
2022-12-27T08:05:01.173Z,94.30
2022-12-27T08:07:29.091Z,94.40
2022-12-27T08:09:57.002Z,94.20
2022-12-27T08:12:24.891Z,94.30
2022-12-27T08:14:52.839Z,94.20
2022-12-27T08:17:23.175Z,93.90
2022-12-27T08:19:53.223Z,94.00
2022-12-27T08:22:23.663Z,94.00
2022-12-27T08:24:51.700Z,94.00
2022-12-27T08:27:23.310Z,94.00
2022-12-27T08:29:51.287Z,93.70
2022-12-27T08:32:19.384Z,93.50
2022-12-27T08:34:47.191Z,93.30
2022-12-27T08:37:15.814Z,92.70
2022-12-27T08:39:45.009Z,92.70
2022-12-27T08:42:14.195Z,92.50
2022-12-27T08:44:42.013Z,92.60
2022-12-27T08:47:09.851Z,92.80
2022-12-27T08:49:37.700Z,92.80
2022-12-27T08:52:05.994Z,92.60
2022-12-27T08:54:33.835Z,92.50
2022-12-27T08:57:03.285Z,92.60
2022-12-27T08:59:31.148Z,91.80
2022-12-27T09:01:59.242Z,91.50
2022-12-27T09:04:27.209Z,91.40
2022-12-27T09:06:55.203Z,91.20
2022-12-27T09:09:23.051Z,90.70
2022-12-27T09:11:50.863Z,90.70
2022-12-27T09:14:20.871Z,90.70
2022-12-27T09:16:48.758Z,91.00
2022-12-27T09:19:16.573Z,90.70
2022-12-27T09:21:44.922Z,90.80
2022-12-27T09:24:13.474Z,90.30
2022-12-27T09:26:41.759Z,90.00
2022-12-27T09:29:09.878Z,89.00
2022-12-27T09:31:39.073Z,90.20
2022-12-27T09:34:06.879Z,90.10
2022-12-27T09:36:34.750Z,90.00
2022-12-27T09:39:02.565Z,89.30
2022-12-27T09:42:44.437Z,89.70
2022-12-27T09:44:34.234Z,89.60
2022-12-27T09:47:07.568Z,88.20
2022-12-27T09:49:39.682Z,87.70
2022-12-27T09:52:15.108Z,87.30
2022-12-27T09:55:01.022Z,87.50
2022-12-27T09:57:36.978Z,87.90
2022-12-27T10:00:08.398Z,88.10
2022-12-27T10:02:37.798Z,87.20
2022-12-27T10:05:20.352Z,87.90
2022-12-27T10:08:01.393Z,88.30
2022-12-27T10:10:43.201Z,87.50
2022-12-27T10:13:21.489Z,87.40
2022-12-27T10:15:56.880Z,86.10
2022-12-27T10:18:35.198Z,86.40
2022-12-27T10:21:11.792Z,85.30
2022-12-27T10:23:43.452Z,85.60
2022-12-27T10:26:14.955Z,84.70
2022-12-27T10:28:45.144Z,85.00
2022-12-27T10:31:15.879Z,84.80
2022-12-27T10:33:45.739Z,85.30
2022-12-27T10:36:16.195Z,85.90
2022-12-27T10:38:44.079Z,84.60
2022-12-27T10:41:33.542Z,83.50
2022-12-27T10:44:01.407Z,85.60
2022-12-27T10:46:33.376Z,85.30
2022-12-27T10:49:22.255Z,84.50
2022-12-27T10:51:52.308Z,84.10
2022-12-27T10:54:24.546Z,83.80
2022-12-27T10:56:52.762Z,80.90
2022-12-27T10:59:22.822Z,80.20
2022-12-27T11:02:08.203Z,79.50
2022-12-27T11:04:37.477Z,80.10
2022-12-27T11:07:19.253Z,80.10
2022-12-27T11:09:51.176Z,80.90
2022-12-27T11:12:21.838Z,80.00
2022-12-27T11:14:57.296Z,80.00
2022-12-27T11:17:28.478Z,80.00
2022-12-27T11:19:59.584Z,78.90
2022-12-27T11:22:27.950Z,80.00
2022-12-27T11:25:00.082Z,80.00
2022-12-27T11:27:29.644Z,80.70
2022-12-27T11:29:59.957Z,80.10
2022-12-27T11:32:28.144Z,79.20
2022-12-27T11:34:58.172Z,78.00
2022-12-27T11:37:28.138Z,76.80
2022-12-27T11:40:11.579Z,78.80
2022-12-27T11:42:44.408Z,79.00
2022-12-27T11:45:21.540Z,79.10
2022-12-27T11:47:55.500Z,78.20
2022-12-27T11:50:41.865Z,77.90
2022-12-27T11:53:48.771Z,77.40
2022-12-27T11:56:25.254Z,74.90
2022-12-27T11:59:27.465Z,71.60
2022-12-27T12:02:18.016Z,71.00
2022-12-27T12:05:18.719Z,71.20
2022-12-27T12:08:11.780Z,72.00
2022-12-27T12:10:49.265Z,72.30
2022-12-27T12:13:48.089Z,72.20
2022-12-27T12:16:45.267Z,72.90
2022-12-27T12:19:28.589Z,72.90
2022-12-27T12:22:11.001Z,72.90
2022-12-27T12:24:58.312Z,72.20
2022-12-27T12:27:41.939Z,71.30
2022-12-27T12:30:41.712Z,71.80
2022-12-27T12:33:38.520Z,73.00
2022-12-27T12:36:31.354Z,73.30
2022-12-27T12:39:08.106Z,73.50
2022-12-27T12:42:01.070Z,72.10
2022-12-27T12:45:07.135Z,71.70
2022-12-27T12:48:15.396Z,72.70
2022-12-27T12:51:07.024Z,71.20
2022-12-27T12:53:51.399Z,70.40
2022-12-27T12:56:38.711Z,69.30
2022-12-27T12:59:21.285Z,69.50
2022-12-27T13:02:01.517Z,69.10
2022-12-27T13:05:05.824Z,70.80
2022-12-27T13:07:43.947Z,70.90
2022-12-27T13:10:38.195Z,70.90
2022-12-27T13:13:13.180Z,71.90
2022-12-27T13:15:58.005Z,72.00
2022-12-27T13:18:35.202Z,72.10
2022-12-27T13:21:16.462Z,72.20
2022-12-27T13:23:53.990Z,72.80
2022-12-27T13:26:28.781Z,72.60
2022-12-27T13:29:11.888Z,72.40
2022-12-27T13:31:52.309Z,72.00
2022-12-27T13:34:30.150Z,72.20
2022-12-27T13:37:12.420Z,72.20
2022-12-27T13:39:56.167Z,73.60
2022-12-27T13:42:45.280Z,73.50
2022-12-27T13:45:27.640Z,73.90
2022-12-27T13:48:09.451Z,75.40
2022-12-27T13:51:03.386Z,74.50
2022-12-27T13:54:06.447Z,73.30
2022-12-27T13:56:55.424Z,73.10
2022-12-27T14:00:04.581Z,73.40
2022-12-27T14:03:11.081Z,74.40
2022-12-27T14:06:06.020Z,74.40
2022-12-27T14:08:58.276Z,75.00
2022-12-27T14:11:38.959Z,75.50
2022-12-27T14:14:07.967Z,75.00
2022-12-27T14:16:48.529Z,77.30
2022-12-27T14:19:33.443Z,75.00
2022-12-27T14:22:29.309Z,75.90
2022-12-27T14:25:44.730Z,76.10
2022-12-27T14:28:35.876Z,76.60
2022-12-27T14:31:25.772Z,77.00
2022-12-27T14:34:22.104Z,77.00
2022-12-27T14:37:37.845Z,77.70
2022-12-27T14:40:45.572Z,79.60
2022-12-27T14:43:58.571Z,78.00
2022-12-27T14:46:58.761Z,76.60
2022-12-27T14:49:59.337Z,76.40
2022-12-27T14:53:01.621Z,77.00
2022-12-27T14:55:59.263Z,76.90
2022-12-27T14:58:51.968Z,77.00
2022-12-27T15:01:33.107Z,77.70
2022-12-27T15:04:13.991Z,78.20
2022-12-27T15:07:11.833Z,78.80
2022-12-27T15:09:51.797Z,79.30
2022-12-27T15:12:28.527Z,79.20
2022-12-27T15:15:16.284Z,79.20
2022-12-27T15:17:58.874Z,79.10
2022-12-27T15:20:43.620Z,79.10
2022-12-27T15:23:21.181Z,79.10
2022-12-27T15:26:02.573Z,79.50
2022-12-27T15:28:44.481Z,79.90
2022-12-27T15:31:22.190Z,80.30
2022-12-27T15:34:03.380Z,80.70
2022-12-27T15:36:40.153Z,81.00
2022-12-27T15:39:46.752Z,81.60
2022-12-27T15:42:43.342Z,82.00
2022-12-27T15:45:31.217Z,82.90
2022-12-27T15:48:24.517Z,83.10
2022-12-27T15:50:59.620Z,83.20
2022-12-27T15:53:41.728Z,83.80
2022-12-27T15:56:36.312Z,84.80
2022-12-27T15:59:37.223Z,84.50
2022-12-27T16:02:28.240Z,84.70
2022-12-27T16:04:58.302Z,84.80
2022-12-27T16:07:47.674Z,85.90
2022-12-27T16:10:50.401Z,86.00
2022-12-27T16:13:42.664Z,86.30
2022-12-27T16:16:40.119Z,86.20
2022-12-27T16:19:20.904Z,87.00
2022-12-27T16:21:49.408Z,86.40
2022-12-27T16:24:20.508Z,85.90
2022-12-27T16:26:55.687Z,87.20
2022-12-27T16:29:28.890Z,86.90
2022-12-27T16:32:18.816Z,87.10
2022-12-27T16:34:48.507Z,87.90
2022-12-27T16:37:28.983Z,88.70
2022-12-27T16:40:11.161Z,89.00
2022-12-27T16:43:30.333Z,89.60
2022-12-27T16:46:09.846Z,89.00
2022-12-27T16:48:58.711Z,88.70
2022-12-27T16:51:38.486Z,89.10
2022-12-27T16:54:17.308Z,88.70
2022-12-27T16:56:48.219Z,89.30
2022-12-27T16:59:55.609Z,89.00
2022-12-27T17:02:44.519Z,89.60
2022-12-27T17:05:37.290Z,89.60
2022-12-27T17:08:16.215Z,88.50
2022-12-27T17:10:56.061Z,88.20
2022-12-27T17:13:31.190Z,88.20
2022-12-27T17:16:06.255Z,88.80
2022-12-27T17:18:37.395Z,89.80
2022-12-27T17:21:09.924Z,89.90
2022-12-27T17:23:44.518Z,90.10
2022-12-27T17:26:31.097Z,90.30
2022-12-27T17:29:07.574Z,88.80
2022-12-27T17:31:43.202Z,89.50
2022-12-27T17:34:18.299Z,88.20
2022-12-27T17:36:58.130Z,89.80
2022-12-27T17:39:44.808Z,90.10
2022-12-27T17:42:38.475Z,90.70
2022-12-27T17:45:22.031Z,91.10
2022-12-27T17:48:15.621Z,91.40
2022-12-27T17:50:45.322Z,91.90
2022-12-27T17:53:40.476Z,92.10
2022-12-27T17:56:35.076Z,92.10
2022-12-27T17:59:09.535Z,92.10
2022-12-27T18:01:43.405Z,92.10
2022-12-27T18:04:20.981Z,92.10
2022-12-27T18:06:49.066Z,92.10
2022-12-27T18:09:36.825Z,92.10
2022-12-27T18:12:10.021Z,92.10
2022-12-27T18:14:38.024Z,92.40
2022-12-27T18:17:06.392Z,92.40
2022-12-27T18:19:34.232Z,92.60
2022-12-27T18:22:04.081Z,92.90
2022-12-27T18:24:34.679Z,93.00
2022-12-27T18:27:05.667Z,93.00
2022-12-27T18:29:34.044Z,92.60
2022-12-27T18:32:05.479Z,92.50
2022-12-27T18:34:39.176Z,92.20
2022-12-27T18:37:10.622Z,92.30
2022-12-27T18:39:43.104Z,92.40
2022-12-27T18:42:18.295Z,92.40
2022-12-27T18:44:48.908Z,92.50
2022-12-27T18:47:21.558Z,92.50
2022-12-27T18:49:55.034Z,92.30
2022-12-27T18:52:26.770Z,92.30
2022-12-27T18:54:56.080Z,92.50
2022-12-27T18:57:33.223Z,92.80
2022-12-27T19:00:03.014Z,93.20
2022-12-27T19:02:34.250Z,93.20
2022-12-27T19:05:30.290Z,93.40
2022-12-27T19:08:02.673Z,93.30
2022-12-27T19:10:33.533Z,93.00
2022-12-27T19:13:02.339Z,92.90
2022-12-27T19:15:37.858Z,92.80
2022-12-27T19:18:08.087Z,92.20
2022-12-27T19:20:37.727Z,92.10
2022-12-27T19:23:08.659Z,92.10
2022-12-27T19:25:39.474Z,92.10
2022-12-27T19:28:25.259Z,91.90
2022-12-27T19:31:16.268Z,92.20
2022-12-27T19:33:47.611Z,92.70
2022-12-27T19:36:15.691Z,92.90
2022-12-27T19:38:47.841Z,93.10
2022-12-27T19:41:17.315Z,93.10
2022-12-27T19:43:47.065Z,93.20
2022-12-27T19:46:15.942Z,93.30
2022-12-27T19:48:43.886Z,93.40
2022-12-27T19:51:16.491Z,93.40
2022-12-27T19:53:48.966Z,93.50
2022-12-27T19:56:19.346Z,93.50
2022-12-27T19:58:48.339Z,93.80
2022-12-27T20:01:16.616Z,93.50
2022-12-27T20:03:44.613Z,93.60
2022-12-27T20:06:21.756Z,93.60
2022-12-27T20:08:53.274Z,93.60
2022-12-27T20:11:24.216Z,93.70
2022-12-27T20:13:52.285Z,93.80
2022-12-27T20:16:20.946Z,93.50
2022-12-27T20:18:48.880Z,93.70
2022-12-27T20:21:18.112Z,93.80
2022-12-27T20:23:46.386Z,93.90
2022-12-27T20:26:17.960Z,93.90
2022-12-27T20:28:47.390Z,93.40
2022-12-27T20:31:17.834Z,93.40
2022-12-27T20:33:51.068Z,93.40
2022-12-27T20:36:18.914Z,93.40
2022-12-27T20:38:46.757Z,93.40
2022-12-27T20:41:16.430Z,93.30
2022-12-27T20:43:44.993Z,93.40
2022-12-27T20:46:15.982Z,93.70
2022-12-27T20:48:45.608Z,93.70
2022-12-27T20:51:16.109Z,93.80
2022-12-27T20:53:44.098Z,94.00
2022-12-27T20:56:12.997Z,94.20
2022-12-27T20:58:41.183Z,94.30
2022-12-27T21:01:10.212Z,94.30
2022-12-27T21:03:40.145Z,94.30
2022-12-27T21:06:09.994Z,94.30
2022-12-27T21:08:45.421Z,94.30
2022-12-27T21:11:16.985Z,94.30
2022-12-27T21:13:45.560Z,94.40
2022-12-27T21:16:15.144Z,94.40
2022-12-27T21:18:44.438Z,94.40
2022-12-27T21:21:14.860Z,94.60
2022-12-27T21:23:43.467Z,93.80
2022-12-27T21:26:14.215Z,93.70
2022-12-27T21:28:42.457Z,93.60
2022-12-27T21:31:11.081Z,93.50
2022-12-27T21:33:39.443Z,93.40
2022-12-27T21:36:12.189Z,93.70
2022-12-27T21:38:40.352Z,93.70
2022-12-27T21:41:11.853Z,93.70
2022-12-27T21:43:39.684Z,93.50
2022-12-27T21:46:09.691Z,93.80
2022-12-27T21:48:37.776Z,93.50
2022-12-27T21:51:08.701Z,93.20
2022-12-27T21:53:36.925Z,93.20
2022-12-27T21:56:05.450Z,93.30
2022-12-27T21:58:33.817Z,93.30
2022-12-27T22:01:08.639Z,93.10
2022-12-27T22:03:38.226Z,93.40
2022-12-27T22:06:15.715Z,93.50
2022-12-27T22:08:44.434Z,92.80
2022-12-27T22:11:12.900Z,93.00
2022-12-27T22:13:40.952Z,92.80
2022-12-27T22:16:13.218Z,92.70
2022-12-27T22:18:42.861Z,93.00
2022-12-27T22:21:14.305Z,93.20
2022-12-27T22:23:44.267Z,93.40
2022-12-27T22:26:13.966Z,93.40
2022-12-27T22:28:41.934Z,93.10
2022-12-27T22:31:11.226Z,92.60
2022-12-27T22:33:39.772Z,92.50
2022-12-27T22:36:10.004Z,92.60
2022-12-27T22:38:40.629Z,92.70
2022-12-27T22:41:09.917Z,93.00
2022-12-27T22:43:37.806Z,93.10
2022-12-27T22:46:10.236Z,93.30
2022-12-27T22:48:39.007Z,93.20
2022-12-27T22:51:08.584Z,93.30
2022-12-27T22:53:36.700Z,93.30
2022-12-27T22:56:05.938Z,93.40
2022-12-27T22:58:33.813Z,93.30
2022-12-27T23:01:01.689Z,93.30
2022-12-27T23:03:29.521Z,93.50
2022-12-27T23:05:58.985Z,93.60
2022-12-27T23:08:27.452Z,93.10
2022-12-27T23:10:55.391Z,93.20
2022-12-27T23:13:26.332Z,92.80
2022-12-27T23:15:58.503Z,92.80
2022-12-27T23:18:26.942Z,92.70
2022-12-27T23:21:20.594Z,92.90
2022-12-27T23:23:43.628Z,92.90
2022-12-27T23:26:16.115Z,93.30
2022-12-27T23:28:47.137Z,93.70
2022-12-27T23:31:15.699Z,93.40
2022-12-27T23:33:44.659Z,93.50
2022-12-27T23:36:13.654Z,93.40
2022-12-27T23:38:41.781Z,93.20
2022-12-27T23:41:12.590Z,93.20
2022-12-27T23:43:56.601Z,92.40
2022-12-27T23:46:28.652Z,92.60
2022-12-27T23:48:57.850Z,92.50
2022-12-27T23:51:26.598Z,92.70
2022-12-27T23:53:54.476Z,92.80
2022-12-27T23:56:24.304Z,92.90
2022-12-27T23:58:54.777Z,93.20
